createdAt,value
2018-04-11T00:00:30.903Z,56.40
2018-04-11T00:02:58.757Z,56.50
2018-04-11T00:05:26.275Z,56.40
2018-04-11T00:07:54.735Z,56.70
2018-04-11T00:10:22.178Z,57.40
2018-04-11T00:12:50.822Z,56.30
2018-04-11T00:15:18.962Z,56.20
2018-04-11T00:17:47.023Z,56.50
2018-04-11T00:20:14.506Z,56.70
2018-04-11T00:22:42.012Z,56.60
2018-04-11T00:25:11.496Z,56.60
2018-04-11T00:27:38.939Z,56.60
2018-04-11T00:30:06.415Z,56.70
2018-04-11T00:32:34.362Z,56.90
2018-04-11T00:35:02.299Z,56.80
2018-04-11T00:37:30.098Z,56.80
2018-04-11T00:39:57.583Z,57.00
2018-04-11T00:42:26.352Z,57.40
2018-04-11T00:44:54.587Z,57.10
2018-04-11T00:47:22.011Z,57.00
2018-04-11T00:49:50.258Z,57.40
2018-04-11T00:52:20.282Z,57.40
2018-04-11T00:54:48.212Z,57.80
2018-04-11T00:57:15.696Z,58.30
2018-04-11T00:59:43.387Z,58.70
2018-04-11T01:02:11.973Z,59.10
2018-04-11T01:04:40.297Z,59.10
2018-04-11T01:07:07.736Z,59.10
2018-04-11T01:09:36.008Z,59.70
2018-04-11T01:12:03.824Z,59.20
2018-04-11T01:14:31.433Z,59.20
2018-04-11T01:16:59.511Z,59.20
2018-04-11T01:19:27.648Z,59.10
2018-04-11T01:21:55.110Z,58.90
2018-04-11T01:24:22.578Z,59.00
2018-04-11T01:26:50.401Z,59.00
2018-04-11T01:29:18.732Z,58.70
2018-04-11T01:31:47.384Z,58.70
2018-04-11T01:34:15.626Z,58.80
2018-04-11T01:36:43.398Z,58.70
2018-04-11T01:39:11.267Z,58.90
2018-04-11T01:41:38.945Z,58.90
2018-04-11T01:44:07.145Z,59.00
2018-04-11T01:46:34.639Z,59.00
2018-04-11T01:49:02.075Z,59.00
2018-04-11T01:51:29.560Z,59.10
2018-04-11T01:53:57.085Z,59.00
2018-04-11T01:56:24.997Z,59.00
2018-04-11T01:58:52.465Z,59.00
2018-04-11T02:01:20.371Z,58.90
2018-04-11T02:03:47.835Z,58.90
2018-04-11T02:06:15.287Z,58.70
2018-04-11T02:08:42.763Z,58.70
2018-04-11T02:11:10.611Z,58.70
2018-04-11T02:13:38.075Z,58.60
2018-04-11T02:16:05.899Z,58.40
2018-04-11T02:18:34.555Z,58.40
2018-04-11T02:21:03.317Z,58.40
2018-04-11T02:23:31.159Z,58.40
2018-04-11T02:25:58.603Z,58.40
2018-04-11T02:28:26.844Z,58.40
2018-04-11T02:30:54.794Z,58.40
2018-04-11T02:33:22.277Z,58.40
2018-04-11T02:35:50.227Z,58.60
2018-04-11T02:38:17.687Z,58.80
2018-04-11T02:40:45.241Z,58.80
2018-04-11T02:43:13.249Z,58.80
2018-04-11T02:45:41.461Z,58.80
2018-04-11T02:48:08.923Z,58.70
2018-04-11T02:50:36.379Z,58.70
2018-04-11T02:53:03.853Z,58.70
2018-04-11T02:55:32.233Z,58.60
2018-04-11T02:57:59.897Z,58.50
2018-04-11T03:00:28.275Z,58.30
2018-04-11T03:02:55.723Z,58.20
2018-04-11T03:05:23.372Z,58.30
2018-04-11T03:07:51.446Z,58.30
2018-04-11T03:10:19.530Z,58.40
2018-04-11T03:12:46.999Z,58.50
2018-04-11T03:15:14.446Z,58.40
2018-04-11T03:17:42.512Z,58.30
2018-04-11T03:20:09.995Z,58.20
2018-04-11T03:22:37.461Z,58.10
2018-04-11T03:25:06.016Z,58.10
2018-04-11T03:27:33.459Z,58.10
2018-04-11T03:30:00.942Z,58.20
2018-04-11T03:32:28.687Z,58.30
2018-04-11T03:34:56.517Z,58.30
2018-04-11T03:37:23.913Z,58.40
2018-04-11T03:39:51.368Z,58.60
2018-04-11T03:42:19.241Z,58.70
2018-04-11T03:44:46.683Z,58.80
2018-04-11T03:47:14.157Z,59.40
2018-04-11T03:49:41.614Z,59.00
2018-04-11T03:52:09.084Z,59.10
2018-04-11T03:54:37.142Z,59.10
2018-04-11T03:57:05.396Z,59.10
2018-04-11T03:59:33.272Z,59.10
2018-04-11T04:02:01.238Z,59.00
2018-04-11T04:04:28.684Z,58.80
2018-04-11T04:06:56.568Z,58.70
2018-04-11T04:09:24.219Z,58.70
2018-04-11T04:11:51.764Z,58.60
2018-04-11T04:14:32.453Z,58.70
2018-04-11T04:17:12.246Z,58.90
2018-04-11T04:22:44.901Z,59.00
2018-04-11T04:25:12.761Z,59.00
2018-04-11T04:27:40.224Z,59.20
2018-04-11T04:30:07.667Z,59.30
2018-04-11T04:32:35.412Z,59.30
2018-04-11T04:35:03.292Z,59.50
2018-04-11T04:37:30.793Z,59.60
2018-04-11T04:39:58.999Z,59.60
2018-04-11T04:42:26.800Z,59.50
2018-04-11T04:44:54.317Z,59.50
2018-04-11T04:47:22.423Z,59.40
2018-04-11T04:49:49.889Z,59.40
2018-04-11T04:52:17.332Z,59.40
2018-04-11T04:54:45.207Z,59.50
2018-04-11T04:57:12.652Z,59.50
2018-04-11T04:59:40.415Z,59.50
2018-04-11T05:02:08.194Z,59.70
2018-04-11T05:04:36.089Z,59.90
2018-04-11T05:07:04.299Z,59.80
2018-04-11T05:09:32.089Z,60.40
2018-04-11T05:11:59.597Z,59.70
2018-04-11T05:14:27.719Z,60.00
2018-04-11T05:16:56.578Z,59.90
2018-04-11T05:19:24.382Z,59.90
2018-04-11T05:21:51.935Z,59.90
2018-04-11T05:24:19.419Z,59.90
2018-04-11T05:26:47.734Z,60.50
2018-04-11T05:29:15.221Z,60.00
2018-04-11T05:31:42.987Z,60.10
2018-04-11T05:34:10.619Z,60.40
2018-04-11T05:36:38.309Z,60.20
2018-04-11T05:39:05.784Z,60.30
2018-04-11T05:41:33.736Z,60.40
2018-04-11T05:44:01.226Z,60.40
2018-04-11T05:46:29.542Z,60.40
2018-04-11T05:48:59.819Z,60.30
2018-04-11T05:51:28.395Z,60.20
2018-04-11T05:53:55.833Z,60.30
2018-04-11T05:56:23.677Z,60.40
2018-04-11T05:58:51.133Z,60.40
2018-04-11T06:01:18.987Z,60.40
2018-04-11T06:03:46.427Z,60.40
2018-04-11T06:06:13.971Z,60.20
2018-04-11T06:08:42.521Z,60.30
2018-04-11T06:11:10.753Z,60.30
2018-04-11T06:13:38.196Z,60.40
2018-04-11T06:16:06.117Z,60.50
2018-04-11T06:18:34.084Z,60.50
2018-04-11T06:21:01.854Z,60.70
2018-04-11T06:23:29.304Z,60.40
2018-04-11T06:25:56.803Z,60.50
2018-04-11T06:28:24.263Z,60.70
2018-04-11T06:30:51.727Z,60.80
2018-04-11T06:33:19.437Z,60.50
2018-04-11T06:35:47.350Z,60.10
2018-04-11T06:38:14.813Z,60.30
2018-04-11T06:40:42.418Z,60.20
2018-04-11T06:43:10.947Z,60.80
2018-04-11T06:45:38.402Z,60.50
2018-04-11T06:48:07.239Z,60.10
2018-04-11T06:50:34.702Z,60.00
2018-04-11T06:53:02.212Z,59.80
2018-04-11T06:55:29.962Z,59.60
2018-04-11T06:57:58.399Z,59.80
2018-04-11T07:00:25.843Z,59.80
2018-04-11T07:02:53.379Z,59.80
2018-04-11T07:05:21.191Z,60.00
2018-04-11T07:07:48.655Z,59.80
2018-04-11T07:10:16.263Z,59.90
2018-04-11T07:12:43.716Z,59.70
2018-04-11T07:15:11.180Z,59.50
2018-04-11T07:17:39.812Z,59.20
2018-04-11T07:20:07.275Z,58.60
2018-04-11T07:22:35.467Z,58.50
2018-04-11T07:25:02.984Z,58.90
2018-04-11T07:27:32.003Z,58.50
2018-04-11T07:30:00.242Z,58.70
2018-04-11T07:32:28.239Z,58.70
2018-04-11T07:34:56.084Z,58.40
2018-04-11T07:37:23.535Z,59.30
2018-04-11T07:39:51.008Z,58.70
2018-04-11T07:42:19.615Z,58.50
2018-04-11T07:44:47.822Z,58.30
2018-04-11T07:47:15.613Z,58.20
2018-04-11T07:49:43.225Z,58.50
2018-04-11T07:52:10.856Z,58.50
2018-04-11T07:54:38.695Z,58.50
2018-04-11T07:57:06.586Z,58.10
2018-04-11T07:59:34.599Z,57.90
2018-04-11T08:02:02.060Z,57.50
2018-04-11T08:04:29.511Z,57.60
2018-04-11T08:06:56.974Z,57.50
2018-04-11T08:09:24.429Z,57.80
2018-04-11T08:11:52.090Z,58.00
2018-04-11T08:14:19.549Z,57.70
2018-04-11T08:16:47.242Z,57.50
2018-04-11T08:19:15.164Z,57.20
2018-04-11T08:21:42.889Z,56.80
2018-04-11T08:24:10.327Z,57.00
2018-04-11T08:26:38.112Z,57.60
2018-04-11T08:29:07.056Z,57.50
2018-04-11T08:31:34.549Z,57.50
2018-04-11T08:34:02.407Z,57.40
2018-04-11T08:36:30.183Z,57.60
2018-04-11T08:38:57.656Z,57.50
2018-04-11T08:41:25.461Z,56.70
2018-04-11T08:43:53.028Z,57.10
2018-04-11T08:46:20.713Z,56.70
2018-04-11T08:48:48.758Z,56.40
2018-04-11T08:51:16.210Z,56.80
2018-04-11T08:53:44.173Z,56.70
2018-04-11T08:56:11.871Z,56.90
2018-04-11T08:58:39.317Z,56.50
2018-04-11T09:01:06.813Z,56.10
2018-04-11T09:03:34.263Z,55.50
2018-04-11T09:06:02.006Z,55.70
2018-04-11T09:08:29.487Z,55.70
2018-04-11T09:10:56.923Z,55.10
2018-04-11T09:13:24.498Z,55.90
2018-04-11T09:15:52.345Z,56.20
2018-04-11T09:18:20.149Z,54.70
2018-04-11T09:20:48.839Z,54.40
2018-04-11T09:23:16.781Z,54.40
2018-04-11T09:25:45.032Z,55.10
2018-04-11T09:28:12.561Z,55.10
2018-04-11T09:30:40.103Z,54.70
2018-04-11T09:33:08.889Z,54.10
2018-04-11T09:35:37.315Z,54.30
2018-04-11T09:38:04.764Z,54.30
2018-04-11T09:40:32.240Z,53.10
2018-04-11T09:43:00.099Z,54.50
2018-04-11T09:45:27.855Z,53.90
2018-04-11T09:47:55.749Z,53.70
2018-04-11T09:50:23.229Z,54.40
2018-04-11T09:52:51.439Z,53.10
2018-04-11T09:55:19.158Z,53.10
2018-04-11T09:57:47.364Z,53.00
2018-04-11T10:00:14.846Z,53.10
2018-04-11T10:02:42.299Z,53.00
2018-04-11T10:05:09.766Z,52.60
2018-04-11T10:07:37.324Z,52.90
2018-04-11T10:10:04.869Z,53.00
2018-04-11T10:12:32.340Z,52.70
2018-04-11T10:14:59.813Z,52.00
2018-04-11T10:17:27.539Z,52.40
2018-04-11T10:19:55.228Z,53.00
2018-04-11T10:22:22.758Z,50.90
2018-04-11T10:24:50.212Z,50.40
2018-04-11T10:27:17.715Z,50.60
2018-04-11T10:29:45.150Z,50.80
2018-04-11T10:32:13.054Z,50.90
2018-04-11T10:34:41.602Z,51.00
2018-04-11T10:37:09.106Z,51.30
2018-04-11T10:39:37.321Z,51.80
2018-04-11T10:42:05.107Z,51.80
2018-04-11T10:44:32.560Z,51.80
2018-04-11T10:47:00.632Z,51.80
2018-04-11T10:49:28.085Z,52.10
2018-04-11T10:51:55.582Z,52.00
2018-04-11T10:54:23.791Z,52.40
2018-04-11T10:56:51.489Z,52.30
2018-04-11T10:59:20.624Z,51.90
2018-04-11T11:01:48.339Z,51.90
2018-04-11T11:04:15.779Z,52.10
2018-04-11T11:06:43.240Z,52.30
2018-04-11T11:09:10.750Z,52.50
2018-04-11T11:11:38.868Z,52.80
2018-04-11T11:14:06.323Z,53.10
2018-04-11T11:16:35.972Z,53.20
2018-04-11T11:19:04.140Z,53.10
2018-04-11T11:21:31.586Z,53.60
2018-04-11T11:23:59.063Z,53.60
2018-04-11T11:26:27.275Z,53.60
2018-04-11T11:28:55.363Z,53.50
2018-04-11T11:31:22.803Z,53.40
2018-04-11T11:33:50.613Z,53.40
2018-04-11T11:36:19.115Z,53.50
2018-04-11T11:38:47.386Z,54.40
2018-04-11T11:41:15.166Z,53.80
2018-04-11T11:43:42.656Z,53.30
2018-04-11T11:46:10.107Z,52.70
2018-04-11T11:48:38.021Z,52.80
2018-04-11T11:51:06.240Z,53.00
2018-04-11T11:53:33.791Z,53.00
2018-04-11T11:56:01.896Z,52.60
2018-04-11T11:58:29.360Z,52.80
2018-04-11T12:00:56.803Z,53.20
2018-04-11T12:03:24.279Z,53.40
2018-04-11T12:05:51.718Z,54.60
2018-04-11T12:08:19.213Z,54.40
2018-04-11T12:10:49.607Z,54.40
2018-04-11T12:13:17.058Z,54.00
2018-04-11T12:15:44.872Z,53.90
2018-04-11T12:18:12.796Z,54.10
2018-04-11T12:20:40.268Z,53.90
2018-04-11T12:23:07.719Z,54.10
2018-04-11T12:25:36.191Z,54.30
2018-04-11T12:28:04.570Z,54.30
2018-04-11T12:30:32.542Z,54.70
2018-04-11T12:33:00.039Z,55.10
2018-04-11T12:35:28.575Z,56.00
2018-04-11T12:37:56.031Z,55.90
2018-04-11T12:40:23.510Z,56.60
2018-04-11T12:42:51.357Z,56.70
2018-04-11T12:45:18.864Z,56.30
2018-04-11T12:47:46.783Z,56.10
2018-04-11T12:50:14.250Z,57.40
2018-04-11T12:52:41.821Z,55.40
2018-04-11T12:55:09.624Z,55.10
2018-04-11T12:57:37.083Z,54.70
2018-04-11T13:00:04.557Z,54.30
2018-04-11T13:02:32.119Z,53.90
2018-04-11T13:04:59.827Z,53.50
2018-04-11T13:07:28.057Z,53.20
2018-04-11T13:09:55.547Z,53.10
2018-04-11T13:12:23.764Z,55.30
2018-04-11T13:14:52.259Z,54.50
2018-04-11T13:17:19.955Z,54.50
2018-04-11T13:19:47.800Z,54.20
2018-04-11T13:22:15.261Z,53.80
2018-04-11T13:24:43.198Z,53.60
2018-04-11T13:27:10.666Z,53.20
2018-04-11T13:29:38.132Z,53.00
2018-04-11T13:32:05.611Z,53.10
2018-04-11T13:34:33.447Z,53.00
2018-04-11T13:37:01.173Z,52.20
2018-04-11T13:39:29.409Z,52.40
2018-04-11T13:41:57.886Z,52.90
2018-04-11T13:44:25.356Z,52.90
2018-04-11T13:46:53.210Z,53.30
2018-04-11T13:49:20.907Z,53.30
2018-04-11T13:51:49.122Z,52.70
2018-04-11T13:54:16.570Z,53.20
2018-04-11T13:56:44.592Z,52.80
2018-04-11T13:59:12.439Z,53.10
2018-04-11T14:01:40.647Z,52.70
2018-04-11T14:04:08.962Z,53.00
2018-04-11T14:06:36.434Z,52.90
2018-04-11T14:09:03.913Z,52.80
2018-04-11T14:11:31.404Z,52.70
2018-04-11T14:13:58.886Z,53.40
2018-04-11T14:16:26.879Z,53.80
2018-04-11T14:18:54.748Z,54.20
2018-04-11T14:21:22.195Z,53.90
2018-04-11T14:23:49.863Z,53.90
2018-04-11T14:26:17.314Z,54.20
2018-04-11T14:28:44.777Z,54.40
2018-04-11T14:31:12.228Z,53.90
2018-04-11T14:33:39.690Z,53.60
2018-04-11T14:36:07.575Z,53.70
2018-04-11T14:38:35.015Z,54.10
2018-04-11T14:41:02.896Z,53.70
2018-04-11T14:43:30.385Z,53.40
2018-04-11T14:45:57.898Z,53.30
2018-04-11T14:48:25.909Z,53.00
2018-04-11T14:50:53.397Z,53.00
2018-04-11T14:53:25.898Z,53.00
2018-04-11T14:55:53.671Z,52.90
2018-04-11T14:58:21.141Z,52.40
2018-04-11T15:00:49.420Z,51.80
2018-04-11T15:03:17.641Z,51.50
2018-04-11T15:05:45.883Z,52.00
2018-04-11T15:08:14.124Z,51.90
2018-04-11T15:10:41.684Z,51.90
2018-04-11T15:13:09.456Z,52.00
2018-04-11T15:15:38.976Z,51.90
2018-04-11T15:18:08.967Z,52.40
2018-04-11T15:20:36.474Z,52.40
2018-04-11T15:23:03.958Z,52.20
2018-04-11T15:25:31.468Z,52.20
2018-04-11T15:27:59.673Z,52.40
2018-04-11T15:30:27.139Z,52.20
2018-04-11T15:32:54.619Z,52.30
2018-04-11T15:35:22.280Z,52.10
2018-04-11T15:37:49.784Z,52.50
2018-04-11T15:40:17.231Z,52.60
2018-04-11T15:42:45.775Z,52.50
2018-04-11T15:45:13.263Z,52.40
2018-04-11T15:47:41.727Z,53.00
2018-04-11T15:50:09.237Z,52.30
2018-04-11T15:52:36.784Z,52.30
2018-04-11T15:55:05.215Z,52.40
2018-04-11T15:57:32.690Z,52.80
2018-04-11T16:00:00.917Z,53.00
2018-04-11T16:02:28.498Z,52.80
2018-04-11T16:04:55.957Z,52.90
2018-04-11T16:07:23.939Z,53.00
2018-04-11T16:09:51.466Z,53.40
2018-04-11T16:12:19.007Z,53.70
2018-04-11T16:14:46.571Z,53.90
2018-04-11T16:17:14.434Z,54.30
2018-04-11T16:19:42.228Z,55.00
2018-04-11T16:22:10.110Z,55.60
2018-04-11T16:24:37.576Z,56.20
2018-04-11T16:27:05.829Z,57.50
2018-04-11T16:29:33.264Z,56.90
2018-04-11T16:32:00.812Z,57.00
2018-04-11T16:34:28.255Z,57.10
2018-04-11T16:36:56.169Z,57.50
2018-04-11T16:39:23.619Z,57.70
2018-04-11T16:41:51.494Z,57.90
2018-04-11T16:44:19.281Z,58.10
2018-04-11T16:46:47.394Z,58.20
2018-04-11T16:49:15.208Z,58.30
2018-04-11T16:51:43.983Z,58.80
2018-04-11T16:54:11.458Z,58.80
2018-04-11T16:56:40.030Z,58.90
2018-04-11T16:59:08.999Z,59.40
2018-04-11T17:01:37.387Z,59.30
2018-04-11T17:04:05.117Z,59.60
2018-04-11T17:06:32.590Z,59.80
2018-04-11T17:09:00.048Z,59.80
2018-04-11T17:11:27.735Z,60.00
2018-04-11T17:13:55.251Z,59.90
2018-04-11T17:16:22.956Z,59.60
2018-04-11T17:18:50.718Z,59.30
2018-04-11T17:21:30.078Z,59.20
2018-04-11T17:24:10.183Z,59.10
2018-04-11T17:26:49.619Z,59.10
2018-04-11T17:29:28.918Z,59.40
2018-04-11T17:31:57.780Z,59.90
2018-04-11T17:34:25.221Z,59.80
2018-04-11T17:36:53.083Z,59.70
2018-04-11T17:39:20.960Z,59.60
2018-04-11T17:41:48.836Z,59.30
2018-04-11T17:44:17.064Z,59.20
2018-04-11T17:46:44.905Z,59.20
2018-04-11T17:49:12.820Z,59.20
2018-04-11T17:51:40.378Z,59.40
2018-04-11T17:54:07.860Z,59.40
2018-04-11T17:56:35.669Z,59.50
2018-04-11T17:59:04.712Z,59.50
2018-04-11T18:01:32.262Z,59.60
2018-04-11T18:03:59.735Z,59.80
2018-04-11T18:06:27.958Z,60.70
2018-04-11T18:08:55.414Z,60.10
2018-04-11T18:11:24.298Z,60.20
2018-04-11T18:13:51.997Z,60.40
2018-04-11T18:16:20.692Z,60.60
2018-04-11T18:18:49.782Z,60.90
2018-04-11T18:21:17.234Z,60.90
2018-04-11T18:23:44.736Z,61.00
2018-04-11T18:26:13.175Z,61.10
2018-04-11T18:28:40.687Z,61.10
2018-04-11T18:31:08.496Z,61.20
2018-04-11T18:33:37.529Z,61.30
2018-04-11T18:36:06.170Z,61.50
2018-04-11T18:38:34.213Z,61.50
2018-04-11T18:41:02.214Z,61.70
2018-04-11T18:43:29.656Z,61.80
2018-04-11T18:45:57.181Z,61.80
2018-04-11T18:48:25.226Z,61.90
2018-04-11T18:50:53.835Z,62.00
2018-04-11T18:53:21.859Z,62.00
2018-04-11T18:55:49.820Z,62.00
2018-04-11T18:58:17.271Z,62.10
2018-04-11T19:00:44.715Z,62.10
2018-04-11T19:03:12.503Z,62.10
2018-04-11T19:05:40.908Z,62.40
2018-04-11T19:08:09.155Z,62.50
2018-04-11T19:10:37.420Z,62.50
2018-04-11T19:13:06.766Z,62.80
2018-04-11T19:15:34.593Z,62.80
2018-04-11T19:18:02.371Z,62.90
2018-04-11T19:20:30.834Z,62.70
2018-04-11T19:22:58.511Z,62.70
2018-04-11T19:25:26.934Z,62.80
2018-04-11T19:27:54.507Z,62.40
2018-04-11T19:30:21.965Z,62.40
2018-04-11T19:32:49.612Z,62.50
2018-04-11T19:35:17.446Z,62.70
2018-04-11T19:37:45.689Z,63.00
2018-04-11T19:40:13.143Z,63.00
2018-04-11T19:42:40.828Z,63.10
2018-04-11T19:45:08.740Z,63.30
2018-04-11T19:47:36.738Z,63.40
2018-04-11T19:50:04.213Z,63.50
2018-04-11T19:52:31.940Z,63.70
2018-04-11T19:54:59.795Z,63.70
2018-04-11T19:57:27.282Z,64.00
2018-04-11T19:59:54.755Z,64.10
2018-04-11T20:02:22.475Z,64.40
2018-04-11T20:04:49.929Z,64.50
2018-04-11T20:07:17.919Z,64.50
2018-04-11T20:09:45.375Z,65.30
2018-04-11T20:12:12.865Z,64.60
2018-04-11T20:14:40.307Z,64.70
2018-04-11T20:17:08.079Z,64.80
2018-04-11T20:19:36.124Z,64.80
2018-04-11T20:22:04.112Z,64.90
2018-04-11T20:24:31.864Z,65.00
2018-04-11T20:26:59.327Z,65.00
2018-04-11T20:29:26.835Z,65.10
2018-04-11T20:31:54.401Z,65.10
2018-04-11T20:34:22.311Z,65.30
2018-04-11T20:36:50.103Z,65.20
2018-04-11T20:39:18.868Z,65.20
2018-04-11T20:41:46.975Z,65.20
2018-04-11T20:44:15.037Z,65.30
2018-04-11T20:46:42.468Z,65.20
2018-04-11T20:49:10.337Z,65.20
2018-04-11T20:51:38.425Z,65.30
2018-04-11T20:54:06.660Z,65.20
2018-04-11T20:56:34.544Z,65.10
2018-04-11T20:59:02.004Z,65.20
2018-04-11T21:01:29.508Z,65.20
2018-04-11T21:03:56.982Z,65.30
2018-04-11T21:06:24.866Z,65.30
2018-04-11T21:08:52.376Z,65.40
2018-04-11T21:11:20.363Z,65.70
2018-04-11T21:13:47.846Z,65.50
2018-04-11T21:16:15.528Z,65.40
2018-04-11T21:18:43.480Z,65.40
2018-04-11T21:21:10.887Z,65.20
2018-04-11T21:23:38.372Z,65.10
2018-04-11T21:26:06.162Z,65.10
2018-04-11T21:28:33.648Z,65.20
2018-04-11T21:31:02.020Z,65.20
2018-04-11T21:33:30.675Z,65.40
2018-04-11T21:35:58.652Z,65.40
2018-04-11T21:38:26.113Z,65.50
2018-04-11T21:40:55.712Z,65.80
2018-04-11T21:43:23.150Z,65.70
2018-04-11T21:45:51.443Z,66.10
2018-04-11T21:48:19.408Z,65.90
2018-04-11T21:50:46.873Z,66.10
2018-04-11T21:53:14.538Z,66.10
2018-04-11T21:55:42.468Z,66.30
2018-04-11T21:58:10.020Z,66.30
2018-04-11T22:00:37.465Z,66.30
2018-04-11T22:03:05.391Z,66.40
2018-04-11T22:05:32.834Z,66.40
2018-04-11T22:08:00.504Z,66.50
2018-04-11T22:10:28.363Z,66.60
2018-04-11T22:12:55.994Z,66.70
2018-04-11T22:15:24.571Z,66.90
2018-04-11T22:17:52.496Z,67.00
2018-04-11T22:20:19.928Z,67.10
2018-04-11T22:22:47.701Z,66.90
2018-04-11T22:25:15.155Z,66.60
2018-04-11T22:27:42.888Z,66.30
2018-04-11T22:30:10.857Z,65.90
2018-04-11T22:32:38.360Z,65.60
2018-04-11T22:35:07.120Z,65.60
2018-04-11T22:37:34.569Z,65.80
2018-04-11T22:40:02.084Z,65.80
2018-04-11T22:42:31.044Z,66.10
2018-04-11T22:44:59.012Z,66.20
2018-04-11T22:47:26.452Z,66.30
2018-04-11T22:49:53.917Z,66.40
2018-04-11T22:52:21.997Z,66.60
2018-04-11T22:54:50.058Z,66.80
2018-04-11T22:57:17.532Z,67.00
2018-04-11T22:59:44.996Z,67.10
2018-04-11T23:02:12.858Z,67.10
2018-04-11T23:04:41.095Z,67.10
2018-04-11T23:07:08.541Z,67.20
2018-04-11T23:09:36.041Z,67.30
2018-04-11T23:12:03.480Z,67.00
2018-04-11T23:14:31.207Z,67.10
2018-04-11T23:16:58.999Z,67.00
2018-04-11T23:19:26.883Z,67.00
2018-04-11T23:21:54.777Z,66.80
2018-04-11T23:24:23.490Z,66.50
2018-04-11T23:26:51.595Z,66.40
2018-04-11T23:29:19.078Z,66.50
2018-04-11T23:31:47.296Z,66.40
2018-04-11T23:34:14.998Z,66.40
2018-04-11T23:36:44.081Z,66.20
2018-04-11T23:39:11.529Z,66.20
2018-04-11T23:41:39.607Z,65.90
2018-04-11T23:44:07.061Z,65.90
2018-04-11T23:46:34.559Z,65.80
2018-04-11T23:49:02.776Z,65.70
2018-04-11T23:51:30.682Z,65.60
2018-04-11T23:53:59.243Z,65.60
2018-04-11T23:56:27.080Z,65.60
2018-04-11T23:58:54.925Z,65.50
